Tiffin, OH

3:08 AM EDT on October 15, 2019 (GMT -0400)
Schonhardt St | | Change Station
Active Advisory: Frost Advisory

Elev 744 ft 41.11 °N, 83.17 °W | Updated 8 seconds ago

Clear
Clear
36 °F
Feels Like 36 °F
N
0
Wind Variable Wind from SSW
Gusts 0.0 mph

Today
High -- | Low -- °F
--% Chance of Precip.
Yesterday
High -- | Low -- °F
Precip. -- in
Pressure 30.11 in
Visibility 10.0 miles
Clouds Clear
Windchill 36 °F
Dew Point 36 °F
Humidity 98%
Rainfall 0.00 in
Snow Depth Not available.
7:44 AM 6:52 PM
Full, 98% visible
METAR KFDY 150653Z AUTO 14003KT 10SM CLR 05/02 A3011 RMK AO2 SLP194 T00500017
Pressure 30.11 in
Visibility 10.0 miles
Clouds Clear
Windchill 36 °F
Dew Point 36 °F
Humidity 98%
Rainfall 0.00 in
Snow Depth Not available.
7:44 AM 6:52 PM
Full, 98% visible
METAR KFDY 150653Z AUTO 14003KT 10SM CLR 05/02 A3011 RMK AO2 SLP194 T00500017

Get Your Daily Forecast Email!

Thanks for signing up!

Be on the lookout for a verification email in your inbox.

You'll start receiving severe weather alerts in your inbox..

×

10-Day Weather Forecast

Almanac

Astronomy

Oct. 15, 2019 Rise Set
Actual Time
Civil Twilight
Nautical Twilight
Astronomical Twilight
Moon
Length of Visible Light
Length of Day
Tomorrow will be .
, % of the Moon is Illuminated

Today's Extremes

State Highs State Lows

Community

WunderPhotos

Category 6

Welcome to Category 6. This is the collective home for Weather Underground's featured writeups by Dr. Jeff Masters (right), Bob Henson (left), Chris Burt, and other regular contributors.

Nearby

Air Quality

  Air Quality AQ Index Pollutant
Not available.

Snow Depth

Station Depth Elevation

Earthquake Activity

City Distance Mag. Time & Date
Minimum magnitude displayed is 2.5.

Coastal Water Temperatures

Place Temperature

Stations

Nearby Weather Stations

Station Location Temp. Windchill Dew Point Humidity Wind Precip. Elev Updated Type
                   

Watches & Warnings

Frost Advisory
Issued: 3:32 PM EDT Oct. 14, 2019 – National Weather Service

... Frost advisory in effect from 2 am to 9 am EDT Tuesday...

* what... temperatures as low as 36 and locally colder will result
in frost formation.

* Where... portions of north Central, Northeast and Northwest
Ohio.

* When... from 2 am to 9 am EDT Tuesday.

* Impacts... frost could kill sensitive outdoor vegetation if
left uncovered.

Precautionary/preparedness actions...

Take steps now to protect tender plants from the cold.